sensor_id;sensor_type;location;lat;lon;timestamp;temperature;humidity
5972;DHT22;3012;49.944;8.454;2024-02-14T00:01:52;6.90;99.90
5972;DHT22;3012;49.944;8.454;2024-02-14T00:04:25;6.30;99.90
5972;DHT22;3012;49.944;8.454;2024-02-14T00:07:01;6.90;99.90
5972;DHT22;3012;49.944;8.454;2024-02-14T00:09:32;6.80;99.90
5972;DHT22;3012;49.944;8.454;2024-02-14T00:12:07;6.90;99.90
5972;DHT22;3012;49.944;8.454;2024-02-14T00:14:42;6.70;99.90
5972;DHT22;3012;49.944;8.454;2024-02-14T00:17:13;7.00;99.90
5972;DHT22;3012;49.944;8.454;2024-02-14T00:19:46;6.60;99.90
5972;DHT22;3012;49.944;8.454;2024-02-14T00:22:20;6.10;99.90
5972;DHT22;3012;49.944;8.454;2024-02-14T00:24:51;6.50;99.90
5972;DHT22;3012;49.944;8.454;2024-02-14T00:27:24;6.50;99.90
5972;DHT22;3012;49.944;8.454;2024-02-14T00:29:57;6.50;99.90
5972;DHT22;3012;49.944;8.454;2024-02-14T00:32:33;6.10;99.90
5972;DHT22;3012;49.944;8.454;2024-02-14T00:35:06;6.50;99.90
5972;DHT22;3012;49.944;8.454;2024-02-14T00:37:40;6.90;99.90
5972;DHT22;3012;49.944;8.454;2024-02-14T00:40:17;6.70;99.90
5972;DHT22;3012;49.944;8.454;2024-02-14T00:42:50;6.80;99.90
5972;DHT22;3012;49.944;8.454;2024-02-14T00:45:22;7.00;99.90
5972;DHT22;3012;49.944;8.454;2024-02-14T00:47:54;6.50;99.90
5972;DHT22;3012;49.944;8.454;2024-02-14T00:50:27;6.90;99.90
5972;DHT22;3012;49.944;8.454;2024-02-14T00:53:03;6.90;99.90
5972;DHT22;3012;49.944;8.454;2024-02-14T00:55:35;6.80;99.90
5972;DHT22;3012;49.944;8.454;2024-02-14T00:58:10;6.90;99.90
5972;DHT22;3012;49.944;8.454;2024-02-14T01:00:50;7.00;99.90
5972;DHT22;3012;49.944;8.454;2024-02-14T01:03:22;6.80;99.90
5972;DHT22;3012;49.944;8.454;2024-02-14T01:05:55;6.90;99.90
5972;DHT22;3012;49.944;8.454;2024-02-14T01:08:29;6.90;99.90
5972;DHT22;3012;49.944;8.454;2024-02-14T01:11:03;6.80;99.90
5972;DHT22;3012;49.944;8.454;2024-02-14T01:13:35;6.90;99.90
5972;DHT22;3012;49.944;8.454;2024-02-14T01:16:08;6.90;99.90
5972;DHT22;3012;49.944;8.454;2024-02-14T01:18:44;6.90;99.90
5972;DHT22;3012;49.944;8.454;2024-02-14T01:21:17;6.90;99.90
5972;DHT22;3012;49.944;8.454;2024-02-14T01:23:52;7.00;99.90
5972;DHT22;3012;49.944;8.454;2024-02-14T01:26:24;6.70;99.90
5972;DHT22;3012;49.944;8.454;2024-02-14T01:28:56;6.90;99.90
5972;DHT22;3012;49.944;8.454;2024-02-14T01:31:29;7.00;99.90
5972;DHT22;3012;49.944;8.454;2024-02-14T01:34:04;6.90;99.90
5972;DHT22;3012;49.944;8.454;2024-02-14T01:36:35;6.90;99.90
5972;DHT22;3012;49.944;8.454;2024-02-14T01:39:08;6.30;99.90
5972;DHT22;3012;49.944;8.454;2024-02-14T01:41:44;6.40;99.90
5972;DHT22;3012;49.944;8.454;2024-02-14T01:44:20;6.90;99.90
5972;DHT22;3012;49.944;8.454;2024-02-14T01:46:51;6.80;99.90
5972;DHT22;3012;49.944;8.454;2024-02-14T01:49:23;7.00;99.90
5972;DHT22;3012;49.944;8.454;2024-02-14T01:52:01;6.70;99.90
5972;DHT22;3012;49.944;8.454;2024-02-14T01:54:36;6.50;99.90
5972;DHT22;3012;49.944;8.454;2024-02-14T01:57:11;6.90;99.90
5972;DHT22;3012;49.944;8.454;2024-02-14T01:59:42;6.90;99.90
5972;DHT22;3012;49.944;8.454;2024-02-14T02:02:14;6.90;99.90
5972;DHT22;3012;49.944;8.454;2024-02-14T02:04:49;6.80;99.90
5972;DHT22;3012;49.944;8.454;2024-02-14T02:07:21;6.90;99.90
5972;DHT22;3012;49.944;8.454;2024-02-14T02:09:53;6.30;99.90
5972;DHT22;3012;49.944;8.454;2024-02-14T02:12:24;6.90;99.90
5972;DHT22;3012;49.944;8.454;2024-02-14T02:14:56;6.80;99.90
5972;DHT22;3012;49.944;8.454;2024-02-14T02:17:29;6.90;99.90
5972;DHT22;3012;49.944;8.454;2024-02-14T02:20:03;6.90;99.90
5972;DHT22;3012;49.944;8.454;2024-02-14T02:22:34;6.80;99.90
5972;DHT22;3012;49.944;8.454;2024-02-14T02:25:08;6.90;99.90
5972;DHT22;3012;49.944;8.454;2024-02-14T02:27:41;6.80;99.90
5972;DHT22;3012;49.944;8.454;2024-02-14T02:30:12;6.90;99.90
5972;DHT22;3012;49.944;8.454;2024-02-14T02:32:43;6.20;99.90
5972;DHT22;3012;49.944;8.454;2024-02-14T02:35:15;6.90;99.90
5972;DHT22;3012;49.944;8.454;2024-02-14T02:37:48;7.00;99.90
5972;DHT22;3012;49.944;8.454;2024-02-14T02:40:23;7.00;99.90
5972;DHT22;3012;49.944;8.454;2024-02-14T02:42:55;6.80;99.90
5972;DHT22;3012;49.944;8.454;2024-02-14T02:45:25;7.00;99.90
5972;DHT22;3012;49.944;8.454;2024-02-14T02:47:56;6.80;99.90
5972;DHT22;3012;49.944;8.454;2024-02-14T02:50:29;6.60;99.90
5972;DHT22;3012;49.944;8.454;2024-02-14T02:52:59;6.90;99.90
5972;DHT22;3012;49.944;8.454;2024-02-14T02:55:32;7.00;99.90
5972;DHT22;3012;49.944;8.454;2024-02-14T02:58:07;7.20;99.90
5972;DHT22;3012;49.944;8.454;2024-02-14T03:00:40;7.00;99.90
5972;DHT22;3012;49.944;8.454;2024-02-14T03:03:12;7.20;99.90
5972;DHT22;3012;49.944;8.454;2024-02-14T03:05:44;6.80;99.90
5972;DHT22;3012;49.944;8.454;2024-02-14T03:08:14;7.00;99.90
5972;DHT22;3012;49.944;8.454;2024-02-14T03:10:47;6.80;99.90
5972;DHT22;3012;49.944;8.454;2024-02-14T03:13:21;7.00;99.90
5972;DHT22;3012;49.944;8.454;2024-02-14T03:15:53;6.90;99.90
5972;DHT22;3012;49.944;8.454;2024-02-14T03:18:26;7.00;99.90
5972;DHT22;3012;49.944;8.454;2024-02-14T03:20:57;6.50;99.90
5972;DHT22;3012;49.944;8.454;2024-02-14T03:23:29;7.20;99.90
5972;DHT22;3012;49.944;8.454;2024-02-14T03:26:02;6.80;99.90
5972;DHT22;3012;49.944;8.454;2024-02-14T03:28:36;7.00;99.90
5972;DHT22;3012;49.944;8.454;2024-02-14T03:31:07;7.10;99.90
5972;DHT22;3012;49.944;8.454;2024-02-14T03:33:44;6.50;99.90
5972;DHT22;3012;49.944;8.454;2024-02-14T03:36:15;6.50;99.90
5972;DHT22;3012;49.944;8.454;2024-02-14T03:38:46;6.90;99.90
5972;DHT22;3012;49.944;8.454;2024-02-14T03:41:21;7.00;99.90
5972;DHT22;3012;49.944;8.454;2024-02-14T03:43:57;7.20;99.90
5972;DHT22;3012;49.944;8.454;2024-02-14T03:46:30;6.80;99.90
5972;DHT22;3012;49.944;8.454;2024-02-14T03:49:03;7.00;99.90
5972;DHT22;3012;49.944;8.454;2024-02-14T03:51:35;6.80;99.90
5972;DHT22;3012;49.944;8.454;2024-02-14T03:54:06;7.10;99.90
5972;DHT22;3012;49.944;8.454;2024-02-14T03:56:39;6.70;99.90
5972;DHT22;3012;49.944;8.454;2024-02-14T03:59:10;6.90;99.90
5972;DHT22;3012;49.944;8.454;2024-02-14T04:01:44;6.80;99.90
5972;DHT22;3012;49.944;8.454;2024-02-14T04:04:15;7.00;99.90
5972;DHT22;3012;49.944;8.454;2024-02-14T04:06:48;6.90;99.90
5972;DHT22;3012;49.944;8.454;2024-02-14T04:09:20;6.90;99.90
5972;DHT22;3012;49.944;8.454;2024-02-14T04:11:53;6.70;99.90
5972;DHT22;3012;49.944;8.454;2024-02-14T04:14:26;6.50;99.90
5972;DHT22;3012;49.944;8.454;2024-02-14T04:16:58;6.90;99.90
5972;DHT22;3012;49.944;8.454;2024-02-14T04:19:29;7.10;99.90
5972;DHT22;3012;49.944;8.454;2024-02-14T04:22:01;7.20;99.90
5972;DHT22;3012;49.944;8.454;2024-02-14T04:24:36;7.20;99.90
5972;DHT22;3012;49.944;8.454;2024-02-14T04:27:09;6.80;99.90
5972;DHT22;3012;49.944;8.454;2024-02-14T04:29:41;7.00;99.90
5972;DHT22;3012;49.944;8.454;2024-02-14T04:32:17;6.70;99.90
5972;DHT22;3012;49.944;8.454;2024-02-14T04:34:51;7.10;99.90
5972;DHT22;3012;49.944;8.454;2024-02-14T04:37:28;7.00;99.90
5972;DHT22;3012;49.944;8.454;2024-02-14T04:40:00;7.20;99.90
5972;DHT22;3012;49.944;8.454;2024-02-14T04:42:34;7.30;99.90
5972;DHT22;3012;49.944;8.454;2024-02-14T04:45:06;6.80;99.90
5972;DHT22;3012;49.944;8.454;2024-02-14T04:47:41;7.10;99.90
5972;DHT22;3012;49.944;8.454;2024-02-14T04:50:16;7.00;99.90
5972;DHT22;3012;49.944;8.454;2024-02-14T04:52:49;7.20;99.90
5972;DHT22;3012;49.944;8.454;2024-02-14T04:55:25;7.00;99.90
5972;DHT22;3012;49.944;8.454;2024-02-14T04:57:59;7.20;99.90
5972;DHT22;3012;49.944;8.454;2024-02-14T05:00:30;7.20;99.90
5972;DHT22;3012;49.944;8.454;2024-02-14T05:03:01;7.00;99.90
5972;DHT22;3012;49.944;8.454;2024-02-14T05:05:34;6.60;99.90
5972;DHT22;3012;49.944;8.454;2024-02-14T05:08:08;7.20;99.90
5972;DHT22;3012;49.944;8.454;2024-02-14T05:10:39;7.20;99.90
5972;DHT22;3012;49.944;8.454;2024-02-14T05:13:11;7.10;99.90
5972;DHT22;3012;49.944;8.454;2024-02-14T05:15:45;7.10;99.90
5972;DHT22;3012;49.944;8.454;2024-02-14T05:18:16;7.10;99.90
5972;DHT22;3012;49.944;8.454;2024-02-14T05:20:47;6.40;99.90
5972;DHT22;3012;49.944;8.454;2024-02-14T05:23:20;7.00;99.90
5972;DHT22;3012;49.944;8.454;2024-02-14T05:25:50;7.00;99.90
5972;DHT22;3012;49.944;8.454;2024-02-14T05:28:26;7.20;99.90
5972;DHT22;3012;49.944;8.454;2024-02-14T05:30:57;7.20;99.90
5972;DHT22;3012;49.944;8.454;2024-02-14T05:33:29;7.40;99.90
5972;DHT22;3012;49.944;8.454;2024-02-14T05:36:02;7.20;99.90
5972;DHT22;3012;49.944;8.454;2024-02-14T05:38:35;7.10;99.90
5972;DHT22;3012;49.944;8.454;2024-02-14T05:41:07;6.90;99.90
5972;DHT22;3012;49.944;8.454;2024-02-14T05:43:40;7.40;99.90
5972;DHT22;3012;49.944;8.454;2024-02-14T05:46:12;7.30;99.90
5972;DHT22;3012;49.944;8.454;2024-02-14T05:48:46;6.60;99.90
5972;DHT22;3012;49.944;8.454;2024-02-14T05:51:19;7.20;99.90
5972;DHT22;3012;49.944;8.454;2024-02-14T05:53:51;7.20;99.90
5972;DHT22;3012;49.944;8.454;2024-02-14T05:56:24;7.20;99.90
5972;DHT22;3012;49.944;8.454;2024-02-14T05:58:58;7.40;99.90
5972;DHT22;3012;49.944;8.454;2024-02-14T06:01:29;7.20;99.90
5972;DHT22;3012;49.944;8.454;2024-02-14T06:04:00;7.40;99.90
5972;DHT22;3012;49.944;8.454;2024-02-14T06:06:31;6.70;99.90
5972;DHT22;3012;49.944;8.454;2024-02-14T06:09:01;7.30;99.90
5972;DHT22;3012;49.944;8.454;2024-02-14T06:11:38;6.80;99.90
5972;DHT22;3012;49.944;8.454;2024-02-14T06:14:10;7.10;99.90
5972;DHT22;3012;49.944;8.454;2024-02-14T06:16:40;7.30;99.90
5972;DHT22;3012;49.944;8.454;2024-02-14T06:19:10;7.50;99.90
5972;DHT22;3012;49.944;8.454;2024-02-14T06:21:41;7.50;99.90
5972;DHT22;3012;49.944;8.454;2024-02-14T06:24:12;7.40;99.90
5972;DHT22;3012;49.944;8.454;2024-02-14T06:26:43;7.40;99.90
5972;DHT22;3012;49.944;8.454;2024-02-14T06:29:16;7.40;99.90
5972;DHT22;3012;49.944;8.454;2024-02-14T06:31:48;7.20;99.90
5972;DHT22;3012;49.944;8.454;2024-02-14T06:34:19;7.20;99.90
5972;DHT22;3012;49.944;8.454;2024-02-14T06:36:49;7.30;99.90
5972;DHT22;3012;49.944;8.454;2024-02-14T06:39:19;7.30;99.90
5972;DHT22;3012;49.944;8.454;2024-02-14T06:41:50;6.70;99.90
5972;DHT22;3012;49.944;8.454;2024-02-14T06:44:23;7.50;99.90
5972;DHT22;3012;49.944;8.454;2024-02-14T06:46:54;7.30;99.90
5972;DHT22;3012;49.944;8.454;2024-02-14T06:49:24;7.30;99.90
5972;DHT22;3012;49.944;8.454;2024-02-14T06:51:57;6.90;99.90
5972;DHT22;3012;49.944;8.454;2024-02-14T06:54:27;7.60;99.90
5972;DHT22;3012;49.944;8.454;2024-02-14T06:56:58;7.20;99.90
5972;DHT22;3012;49.944;8.454;2024-02-14T06:59:30;7.40;99.90
5972;DHT22;3012;49.944;8.454;2024-02-14T07:02:00;7.30;99.90
5972;DHT22;3012;49.944;8.454;2024-02-14T07:04:40;7.30;99.90
5972;DHT22;3012;49.944;8.454;2024-02-14T07:07:11;7.80;99.90
5972;DHT22;3012;49.944;8.454;2024-02-14T07:09:42;7.00;99.90
5972;DHT22;3012;49.944;8.454;2024-02-14T07:12:11;7.50;99.90
5972;DHT22;3012;49.944;8.454;2024-02-14T07:14:43;7.40;99.90
5972;DHT22;3012;49.944;8.454;2024-02-14T07:17:13;7.20;99.90
5972;DHT22;3012;49.944;8.454;2024-02-14T07:19:44;7.60;99.90
5972;DHT22;3012;49.944;8.454;2024-02-14T07:22:18;7.10;99.90
5972;DHT22;3012;49.944;8.454;2024-02-14T07:24:50;7.50;99.90
5972;DHT22;3012;49.944;8.454;2024-02-14T07:27:22;7.10;99.90
5972;DHT22;3012;49.944;8.454;2024-02-14T07:29:54;7.50;99.90
5972;DHT22;3012;49.944;8.454;2024-02-14T07:32:25;7.70;99.90
5972;DHT22;3012;49.944;8.454;2024-02-14T07:34:55;7.80;99.90
5972;DHT22;3012;49.944;8.454;2024-02-14T07:37:25;7.70;99.90
5972;DHT22;3012;49.944;8.454;2024-02-14T07:39:55;7.70;99.90
5972;DHT22;3012;49.944;8.454;2024-02-14T07:42:26;7.60;99.90
5972;DHT22;3012;49.944;8.454;2024-02-14T07:44:58;7.80;99.90
5972;DHT22;3012;49.944;8.454;2024-02-14T08:09:06;8.20;99.90
5972;DHT22;3012;49.944;8.454;2024-02-14T08:11:36;8.00;99.90
5972;DHT22;3012;49.944;8.454;2024-02-14T08:14:05;8.10;99.90
5972;DHT22;3012;49.944;8.454;2024-02-14T08:16:33;8.10;99.90
5972;DHT22;3012;49.944;8.454;2024-02-14T08:19:02;8.00;99.90
5972;DHT22;3012;49.944;8.454;2024-02-14T08:21:31;8.00;99.90
5972;DHT22;3012;49.944;8.454;2024-02-14T08:24:00;7.80;99.90
5972;DHT22;3012;49.944;8.454;2024-02-14T08:26:31;8.10;99.90
5972;DHT22;3012;49.944;8.454;2024-02-14T08:29:00;8.00;99.90
5972;DHT22;3012;49.944;8.454;2024-02-14T08:31:28;8.40;99.90
5972;DHT22;3012;49.944;8.454;2024-02-14T08:33:56;8.20;99.90
5972;DHT22;3012;49.944;8.454;2024-02-14T08:36:26;8.10;99.90
5972;DHT22;3012;49.944;8.454;2024-02-14T08:38:54;8.10;99.90
5972;DHT22;3012;49.944;8.454;2024-02-14T08:41:22;8.20;99.90
5972;DHT22;3012;49.944;8.454;2024-02-14T08:43:52;8.00;99.90
5972;DHT22;3012;49.944;8.454;2024-02-14T08:46:21;8.60;99.90
5972;DHT22;3012;49.944;8.454;2024-02-14T08:48:50;8.50;99.90
5972;DHT22;3012;49.944;8.454;2024-02-14T08:51:21;8.50;99.90
5972;DHT22;3012;49.944;8.454;2024-02-14T08:53:51;8.90;99.90
5972;DHT22;3012;49.944;8.454;2024-02-14T08:56:23;8.80;99.90
5972;DHT22;3012;49.944;8.454;2024-02-14T08:58:53;8.90;99.90
5972;DHT22;3012;49.944;8.454;2024-02-14T09:01:22;9.00;99.90
5972;DHT22;3012;49.944;8.454;2024-02-14T09:03:55;8.80;99.90
5972;DHT22;3012;49.944;8.454;2024-02-14T09:06:24;9.20;99.90
5972;DHT22;3012;49.944;8.454;2024-02-14T09:08:54;8.60;99.90
5972;DHT22;3012;49.944;8.454;2024-02-14T09:11:24;9.20;99.90
5972;DHT22;3012;49.944;8.454;2024-02-14T09:13:55;8.90;99.90
5972;DHT22;3012;49.944;8.454;2024-02-14T09:16:29;8.90;99.90
5972;DHT22;3012;49.944;8.454;2024-02-14T09:18:57;9.00;99.90
5972;DHT22;3012;49.944;8.454;2024-02-14T09:21:26;9.20;99.90
5972;DHT22;3012;49.944;8.454;2024-02-14T09:23:55;8.90;99.90
5972;DHT22;3012;49.944;8.454;2024-02-14T09:26:26;8.70;99.90
5972;DHT22;3012;49.944;8.454;2024-02-14T09:28:57;9.00;99.90
5972;DHT22;3012;49.944;8.454;2024-02-14T09:31:26;8.90;99.90
5972;DHT22;3012;49.944;8.454;2024-02-14T09:33:54;9.10;99.90
5972;DHT22;3012;49.944;8.454;2024-02-14T09:36:25;9.00;99.90
5972;DHT22;3012;49.944;8.454;2024-02-14T09:38:53;9.40;99.90
5972;DHT22;3012;49.944;8.454;2024-02-14T09:41:25;9.10;99.90
5972;DHT22;3012;49.944;8.454;2024-02-14T09:43:54;9.20;99.90
5972;DHT22;3012;49.944;8.454;2024-02-14T09:46:25;9.10;99.90
5972;DHT22;3012;49.944;8.454;2024-02-14T09:48:53;9.30;99.90
5972;DHT22;3012;49.944;8.454;2024-02-14T09:51:31;9.30;99.90
5972;DHT22;3012;49.944;8.454;2024-02-14T09:54:07;8.90;99.90
5972;DHT22;3012;49.944;8.454;2024-02-14T09:56:37;9.50;99.90
5972;DHT22;3012;49.944;8.454;2024-02-14T09:59:06;9.50;99.90
5972;DHT22;3012;49.944;8.454;2024-02-14T10:01:42;9.40;99.90
5972;DHT22;3012;49.944;8.454;2024-02-14T10:10:57;9.50;99.90
5972;DHT22;3012;49.944;8.454;2024-02-14T10:13:27;9.30;99.90
5972;DHT22;3012;49.944;8.454;2024-02-14T10:15:58;9.60;99.90
5972;DHT22;3012;49.944;8.454;2024-02-14T10:18:28;9.70;99.90
5972;DHT22;3012;49.944;8.454;2024-02-14T10:20:56;9.90;99.90
5972;DHT22;3012;49.944;8.454;2024-02-14T10:23:26;10.00;99.90
5972;DHT22;3012;49.944;8.454;2024-02-14T10:25:54;10.00;99.90
5972;DHT22;3012;49.944;8.454;2024-02-14T10:28:23;10.10;99.90
5972;DHT22;3012;49.944;8.454;2024-02-14T10:31:02;10.20;99.90
5972;DHT22;3012;49.944;8.454;2024-02-14T10:33:34;10.10;99.90
5972;DHT22;3012;49.944;8.454;2024-02-14T10:36:03;9.80;99.90
5972;DHT22;3012;49.944;8.454;2024-02-14T10:38:35;10.20;99.90
5972;DHT22;3012;49.944;8.454;2024-02-14T10:41:04;10.20;99.90
5972;DHT22;3012;49.944;8.454;2024-02-14T10:43:35;10.20;99.90
5972;DHT22;3012;49.944;8.454;2024-02-14T10:46:07;10.30;99.90
5972;DHT22;3012;49.944;8.454;2024-02-14T10:48:39;9.70;99.90
5972;DHT22;3012;49.944;8.454;2024-02-14T10:51:08;9.60;99.90
5972;DHT22;3012;49.944;8.454;2024-02-14T10:53:39;9.50;99.90
5972;DHT22;3012;49.944;8.454;2024-02-14T10:56:17;9.90;99.90
5972;DHT22;3012;49.944;8.454;2024-02-14T10:58:47;10.30;99.90
5972;DHT22;3012;49.944;8.454;2024-02-14T11:01:16;10.50;99.90
5972;DHT22;3012;49.944;8.454;2024-02-14T11:03:46;10.20;99.90
5972;DHT22;3012;49.944;8.454;2024-02-14T11:06:16;10.60;99.90
5972;DHT22;3012;49.944;8.454;2024-02-14T11:09:00;10.40;99.90
5972;DHT22;3012;49.944;8.454;2024-02-14T11:11:33;10.40;99.90
5972;DHT22;3012;49.944;8.454;2024-02-14T11:14:02;10.80;99.90
5972;DHT22;3012;49.944;8.454;2024-02-14T11:16:31;10.70;99.90
5972;DHT22;3012;49.944;8.454;2024-02-14T11:19:08;10.80;99.90
5972;DHT22;3012;49.944;8.454;2024-02-14T11:21:41;10.40;99.90
5972;DHT22;3012;49.944;8.454;2024-02-14T11:24:11;10.50;99.90
5972;DHT22;3012;49.944;8.454;2024-02-14T11:26:47;10.70;99.90
5972;DHT22;3012;49.944;8.454;2024-02-14T11:29:18;10.80;99.90
5972;DHT22;3012;49.944;8.454;2024-02-14T11:31:58;10.80;99.90
5972;DHT22;3012;49.944;8.454;2024-02-14T11:34:28;11.50;99.90
5972;DHT22;3012;49.944;8.454;2024-02-14T11:37:03;11.50;99.90
5972;DHT22;3012;49.944;8.454;2024-02-14T11:39:33;11.50;99.90
5972;DHT22;3012;49.944;8.454;2024-02-14T11:42:01;11.10;99.90
5972;DHT22;3012;49.944;8.454;2024-02-14T11:44:29;11.20;99.90
5972;DHT22;3012;49.944;8.454;2024-02-14T11:46:59;11.90;99.90
5972;DHT22;3012;49.944;8.454;2024-02-14T11:49:29;11.70;99.90
5972;DHT22;3012;49.944;8.454;2024-02-14T11:51:59;11.40;99.90
5972;DHT22;3012;49.944;8.454;2024-02-14T11:54:27;11.10;99.90
5972;DHT22;3012;49.944;8.454;2024-02-14T11:56:55;11.50;99.90
5972;DHT22;3012;49.944;8.454;2024-02-14T11:59:23;11.50;99.90
5972;DHT22;3012;49.944;8.454;2024-02-14T12:01:52;11.50;99.90
5972;DHT22;3012;49.944;8.454;2024-02-14T12:04:21;11.50;99.90
5972;DHT22;3012;49.944;8.454;2024-02-14T12:06:51;11.50;99.90
5972;DHT22;3012;49.944;8.454;2024-02-14T12:09:20;11.50;99.90
5972;DHT22;3012;49.944;8.454;2024-02-14T12:11:51;10.90;99.90
5972;DHT22;3012;49.944;8.454;2024-02-14T12:14:22;11.20;99.90
5972;DHT22;3012;49.944;8.454;2024-02-14T12:16:56;11.30;99.90
5972;DHT22;3012;49.944;8.454;2024-02-14T12:19:24;11.40;99.90
5972;DHT22;3012;49.944;8.454;2024-02-14T12:22:00;11.30;99.90
5972;DHT22;3012;49.944;8.454;2024-02-14T12:24:28;11.40;99.90
5972;DHT22;3012;49.944;8.454;2024-02-14T12:26:57;11.10;99.90
5972;DHT22;3012;49.944;8.454;2024-02-14T12:29:25;11.50;99.90
5972;DHT22;3012;49.944;8.454;2024-02-14T12:32:03;11.20;99.90
5972;DHT22;3012;49.944;8.454;2024-02-14T12:34:32;11.00;99.90
5972;DHT22;3012;49.944;8.454;2024-02-14T12:37:03;11.30;99.90
5972;DHT22;3012;49.944;8.454;2024-02-14T12:39:32;11.10;99.90
5972;DHT22;3012;49.944;8.454;2024-02-14T12:42:00;11.20;99.90
5972;DHT22;3012;49.944;8.454;2024-02-14T12:44:31;10.80;99.90
5972;DHT22;3012;49.944;8.454;2024-02-14T12:47:04;11.00;99.90
5972;DHT22;3012;49.944;8.454;2024-02-14T12:49:34;11.20;99.90
5972;DHT22;3012;49.944;8.454;2024-02-14T12:52:04;11.10;99.90
5972;DHT22;3012;49.944;8.454;2024-02-14T12:54:33;11.20;99.90
5972;DHT22;3012;49.944;8.454;2024-02-14T12:57:01;11.00;99.90
5972;DHT22;3012;49.944;8.454;2024-02-14T12:59:30;11.10;99.90
5972;DHT22;3012;49.944;8.454;2024-02-14T13:01:58;11.20;99.90
5972;DHT22;3012;49.944;8.454;2024-02-14T13:04:26;11.40;99.90
5972;DHT22;3012;49.944;8.454;2024-02-14T13:06:54;11.30;99.90
5972;DHT22;3012;49.944;8.454;2024-02-14T13:09:24;11.20;99.90
5972;DHT22;3012;49.944;8.454;2024-02-14T13:11:53;10.90;99.90
5972;DHT22;3012;49.944;8.454;2024-02-14T13:14:21;10.90;99.90
5972;DHT22;3012;49.944;8.454;2024-02-14T13:16:49;11.20;99.90
5972;DHT22;3012;49.944;8.454;2024-02-14T13:19:19;10.60;99.90
5972;DHT22;3012;49.944;8.454;2024-02-14T13:21:47;10.30;99.90
5972;DHT22;3012;49.944;8.454;2024-02-14T13:24:15;11.10;99.90
5972;DHT22;3012;49.944;8.454;2024-02-14T13:26:45;11.00;99.90
5972;DHT22;3012;49.944;8.454;2024-02-14T13:29:13;10.30;99.90
5972;DHT22;3012;49.944;8.454;2024-02-14T13:31:44;10.30;99.90
5972;DHT22;3012;49.944;8.454;2024-02-14T13:34:11;10.90;99.90
5972;DHT22;3012;49.944;8.454;2024-02-14T13:36:41;11.00;99.90
5972;DHT22;3012;49.944;8.454;2024-02-14T13:39:10;10.80;99.90
5972;DHT22;3012;49.944;8.454;2024-02-14T13:41:39;11.00;99.90
5972;DHT22;3012;49.944;8.454;2024-02-14T13:44:12;10.70;99.90
5972;DHT22;3012;49.944;8.454;2024-02-14T13:46:44;10.50;99.90
5972;DHT22;3012;49.944;8.454;2024-02-14T13:49:12;10.40;99.90
5972;DHT22;3012;49.944;8.454;2024-02-14T13:51:45;11.10;99.90
5972;DHT22;3012;49.944;8.454;2024-02-14T13:54:13;10.80;99.90
5972;DHT22;3012;49.944;8.454;2024-02-14T13:56:41;10.50;99.90
5972;DHT22;3012;49.944;8.454;2024-02-14T13:59:14;10.20;99.90
5972;DHT22;3012;49.944;8.454;2024-02-14T14:01:42;10.50;99.90
5972;DHT22;3012;49.944;8.454;2024-02-14T14:04:10;10.60;99.90
5972;DHT22;3012;49.944;8.454;2024-02-14T14:06:39;10.90;99.90
5972;DHT22;3012;49.944;8.454;2024-02-14T14:09:07;10.90;99.90
5972;DHT22;3012;49.944;8.454;2024-02-14T14:11:37;11.00;99.90
5972;DHT22;3012;49.944;8.454;2024-02-14T14:14:07;10.60;99.90
5972;DHT22;3012;49.944;8.454;2024-02-14T14:16:41;11.00;99.90
5972;DHT22;3012;49.944;8.454;2024-02-14T14:19:10;10.90;99.90
5972;DHT22;3012;49.944;8.454;2024-02-14T14:21:39;10.90;99.90
5972;DHT22;3012;49.944;8.454;2024-02-14T14:24:07;10.50;99.90
5972;DHT22;3012;49.944;8.454;2024-02-14T14:26:35;10.40;99.90
5972;DHT22;3012;49.944;8.454;2024-02-14T14:29:04;11.00;99.90
5972;DHT22;3012;49.944;8.454;2024-02-14T14:31:32;10.20;99.90
5972;DHT22;3012;49.944;8.454;2024-02-14T14:34:04;10.80;99.90
5972;DHT22;3012;49.944;8.454;2024-02-14T14:36:32;10.90;99.90
5972;DHT22;3012;49.944;8.454;2024-02-14T14:39:00;10.80;99.90
5972;DHT22;3012;49.944;8.454;2024-02-14T14:41:29;10.90;99.90
5972;DHT22;3012;49.944;8.454;2024-02-14T14:43:57;10.60;99.90
5972;DHT22;3012;49.944;8.454;2024-02-14T14:46:25;10.50;99.90
5972;DHT22;3012;49.944;8.454;2024-02-14T14:48:54;10.70;99.90
5972;DHT22;3012;49.944;8.454;2024-02-14T14:51:23;10.30;99.90
5972;DHT22;3012;49.944;8.454;2024-02-14T14:53:51;10.30;99.90
5972;DHT22;3012;49.944;8.454;2024-02-14T14:56:19;10.40;99.90
5972;DHT22;3012;49.944;8.454;2024-02-14T14:58:52;10.30;99.90
5972;DHT22;3012;49.944;8.454;2024-02-14T15:01:20;10.40;99.90
5972;DHT22;3012;49.944;8.454;2024-02-14T15:03:48;10.60;99.90
5972;DHT22;3012;49.944;8.454;2024-02-14T15:06:16;10.50;99.90
5972;DHT22;3012;49.944;8.454;2024-02-14T15:08:46;10.10;99.90
5972;DHT22;3012;49.944;8.454;2024-02-14T15:11:15;10.40;99.90
5972;DHT22;3012;49.944;8.454;2024-02-14T15:13:44;10.30;99.90
5972;DHT22;3012;49.944;8.454;2024-02-14T15:16:13;9.80;99.90
5972;DHT22;3012;49.944;8.454;2024-02-14T15:18:41;10.60;99.90
5972;DHT22;3012;49.944;8.454;2024-02-14T15:21:10;10.60;99.90
5972;DHT22;3012;49.944;8.454;2024-02-14T15:23:41;10.30;99.90
5972;DHT22;3012;49.944;8.454;2024-02-14T15:26:12;10.50;99.90
5972;DHT22;3012;49.944;8.454;2024-02-14T15:28:43;10.50;99.90
5972;DHT22;3012;49.944;8.454;2024-02-14T15:31:12;10.60;99.90
5972;DHT22;3012;49.944;8.454;2024-02-14T15:33:57;10.60;99.90
5972;DHT22;3012;49.944;8.454;2024-02-14T15:36:25;10.00;99.90
5972;DHT22;3012;49.944;8.454;2024-02-14T15:38:53;9.90;99.90
5972;DHT22;3012;49.944;8.454;2024-02-14T15:41:23;10.50;99.90
5972;DHT22;3012;49.944;8.454;2024-02-14T15:43:51;10.30;99.90
5972;DHT22;3012;49.944;8.454;2024-02-14T15:46:19;10.30;99.90
5972;DHT22;3012;49.944;8.454;2024-02-14T15:48:47;9.80;99.90
5972;DHT22;3012;49.944;8.454;2024-02-14T15:51:15;10.50;99.90
5972;DHT22;3012;49.944;8.454;2024-02-14T15:53:44;10.20;99.90
5972;DHT22;3012;49.944;8.454;2024-02-14T15:56:12;10.50;99.90
5972;DHT22;3012;49.944;8.454;2024-02-14T15:58:42;10.60;99.90
5972;DHT22;3012;49.944;8.454;2024-02-14T16:01:11;10.30;99.90
5972;DHT22;3012;49.944;8.454;2024-02-14T16:03:39;10.30;99.90
5972;DHT22;3012;49.944;8.454;2024-02-14T16:06:07;10.30;99.90
5972;DHT22;3012;49.944;8.454;2024-02-14T16:08:35;9.80;99.90
5972;DHT22;3012;49.944;8.454;2024-02-14T16:11:04;10.30;99.90
5972;DHT22;3012;49.944;8.454;2024-02-14T16:13:32;10.50;99.90
5972;DHT22;3012;49.944;8.454;2024-02-14T16:16:04;10.30;99.90
5972;DHT22;3012;49.944;8.454;2024-02-14T16:18:34;10.10;99.90
5972;DHT22;3012;49.944;8.454;2024-02-14T16:21:04;10.40;99.90
5972;DHT22;3012;49.944;8.454;2024-02-14T16:23:33;10.50;99.90
5972;DHT22;3012;49.944;8.454;2024-02-14T16:26:01;10.10;99.90
5972;DHT22;3012;49.944;8.454;2024-02-14T16:28:30;10.10;99.90
5972;DHT22;3012;49.944;8.454;2024-02-14T16:30:58;10.50;99.90
5972;DHT22;3012;49.944;8.454;2024-02-14T16:33:28;10.30;99.90
5972;DHT22;3012;49.944;8.454;2024-02-14T16:35:57;10.20;99.90
5972;DHT22;3012;49.944;8.454;2024-02-14T16:38:26;10.20;99.90
5972;DHT22;3012;49.944;8.454;2024-02-14T16:40:54;9.60;99.90
5972;DHT22;3012;49.944;8.454;2024-02-14T16:43:22;10.30;99.90
5972;DHT22;3012;49.944;8.454;2024-02-14T16:45:50;9.70;99.90
5972;DHT22;3012;49.944;8.454;2024-02-14T16:48:18;10.20;99.90
5972;DHT22;3012;49.944;8.454;2024-02-14T16:50:48;10.20;99.90
5972;DHT22;3012;49.944;8.454;2024-02-14T16:53:16;10.30;99.90
5972;DHT22;3012;49.944;8.454;2024-02-14T16:55:44;9.70;99.90
5972;DHT22;3012;49.944;8.454;2024-02-14T16:58:12;10.00;99.90
5972;DHT22;3012;49.944;8.454;2024-02-14T17:00:40;10.20;99.90
5972;DHT22;3012;49.944;8.454;2024-02-14T17:03:08;9.90;99.90
5972;DHT22;3012;49.944;8.454;2024-02-14T17:05:44;9.90;99.90